Time;durP1;ratioP1;P1;durP2;ratioP2;P2;SDS_P1;SDS_P2;PMS_P1;PMS_P2;Temp;Humidity;BMP_temperature;BMP_pressure;BME280_temperature;BME280_humidity;BME280_pressure;Samples;Min_cycle;Max_cycle;Signal;HPM_P1;HPM_P2
2022/11/05 00:10:07;;;;;;;59.65;27.13;;;;;;;;;;6193651;23;20359;-78
2022/11/05 00:18:00;;;;;;;54.83;27.83;;;;;;;;;;6215724;23;20083;-78
2022/11/05 00:20:25;;;;;;;54.42;28.10;;;;;;;;;;6229312;23;20008;-78
2022/11/05 00:25:55;;;;;;;52.03;27.63;;;;;;;;;;6215172;23;20490;-78
2022/11/05 00:28:24;;;;;;;61.28;28.85;;;;;;;;;;6215438;23;20011;-78
2022/11/05 00:30:49;;;;;;;52.83;27.77;;;;;;;;;;6189214;23;20001;-77
2022/11/05 00:33:15;;;;;;;54.42;27.83;;;;;;;;;;6215018;23;20000;-78
2022/11/05 00:35:41;;;;;;;54.15;28.05;;;;;;;;;;6188334;23;20004;-78
2022/11/05 00:38:06;;;;;;;60.67;28.70;;;;;;;;;;6214768;23;20036;-77
2022/11/05 00:40:32;;;;;;;59.25;28.45;;;;;;;;;;6215330;23;20007;-77
2022/11/05 00:45:42;;;;;;;54.83;28.05;;;;;;;;;;6215114;23;20015;-77
2022/11/05 00:50:51;;;;;;;57.03;27.98;;;;;;;;;;6214668;23;20090;-78
2022/11/05 00:53:16;;;;;;;59.80;28.17;;;;;;;;;;6214867;23;20348;-78
2022/11/05 00:55:43;;;;;;;53.47;29.58;;;;;;;;;;6215021;23;20011;-79
2022/11/05 00:58:16;;;;;;;56.80;28.40;;;;;;;;;;6188105;23;20448;-78
2022/11/05 01:00:43;;;;;;;55.70;28.90;;;;;;;;;;6189241;23;20008;-77
2022/11/05 01:03:11;;;;;;;55.75;28.88;;;;;;;;;;6215191;23;20005;-78
2022/11/05 01:05:43;;;;;;;50.70;28.50;;;;;;;;;;6189222;23;20000;-78
2022/11/05 01:08:09;;;;;;;54.65;28.52;;;;;;;;;;6214236;23;20087;-78
2022/11/05 01:10:46;;;;;;;56.45;28.95;;;;;;;;;;6188363;23;20008;-78
2022/11/05 01:13:11;;;;;;;63.92;28.92;;;;;;;;;;6188501;23;20004;-78
2022/11/05 01:15:37;;;;;;;53.90;28.30;;;;;;;;;;6187822;23;20482;-78
2022/11/05 01:18:03;;;;;;;54.72;28.40;;;;;;;;;;6165477;23;20020;-77
2022/11/05 01:20:28;;;;;;;57.70;28.75;;;;;;;;;;6189336;23;20000;-77
2022/11/05 01:22:54;;;;;;;56.08;28.05;;;;;;;;;;6220095;23;20007;-78
2022/11/05 01:25:19;;;;;;;54.15;28.42;;;;;;;;;;6191889;23;20083;-77
2022/11/05 01:27:45;;;;;;;59.20;29.13;;;;;;;;;;6191085;23;20008;-77
2022/11/05 01:30:12;;;;;;;51.92;29.33;;;;;;;;;;6217307;23;20032;-77
2022/11/05 01:32:37;;;;;;;55.92;28.65;;;;;;;;;;6163748;23;20024;-77
2022/11/05 01:35:07;;;;;;;56.55;29.42;;;;;;;;;;6214106;23;20367;-78
2022/11/05 01:37:33;;;;;;;63.95;30.55;;;;;;;;;;6216091;23;20412;-79
2022/11/05 01:39:59;;;;;;;56.97;31.33;;;;;;;;;;6163307;23;20328;-78
2022/11/05 01:42:25;;;;;;;57.20;31.60;;;;;;;;;;6218151;23;20009;-78
2022/11/05 01:45:20;;;;;;;59.92;31.60;;;;;;;;;;6187900;23;20000;-79
2022/11/05 01:48:12;;;;;;;58.78;30.40;;;;;;;;;;6187847;23;20337;-78
2022/11/05 01:50:49;;;;;;;59.95;31.13;;;;;;;;;;6189517;23;20055;-79
2022/11/05 01:53:21;;;;;;;61.80;31.88;;;;;;;;;;6163051;23;20062;-78
2022/11/05 01:56:17;;;;;;;58.13;31.13;;;;;;;;;;6213779;23;20008;-77
2022/11/05 01:58:47;;;;;;;56.80;30.80;;;;;;;;;;6163129;23;20001;-78
2022/11/05 02:01:13;;;;;;;60.03;31.35;;;;;;;;;;6188304;23;20005;-78
2022/11/05 02:03:39;;;;;;;63.75;31.45;;;;;;;;;;6187376;23;20001;-78
2022/11/05 02:06:08;;;;;;;65.55;33.90;;;;;;;;;;6162559;23;20096;-79
2022/11/05 02:08:52;;;;;;;63.50;32.70;;;;;;;;;;6187066;23;20010;-79
2022/11/05 02:11:18;;;;;;;73.07;33.63;;;;;;;;;;6213023;23;20427;-79
2022/11/05 02:13:43;;;;;;;60.28;32.17;;;;;;;;;;6162643;23;20031;-79
2022/11/05 02:16:30;;;;;;;68.43;33.10;;;;;;;;;;6187259;23;20011;-78
2022/11/05 02:19:44;;;;;;;62.92;33.30;;;;;;;;;;6213697;23;20000;-78
2022/11/05 02:22:31;;;;;;;72.65;36.72;;;;;;;;;;6187585;23;20009;-78
2022/11/05 02:25:20;;;;;;;66.43;34.97;;;;;;;;;;6213800;23;20388;-78
2022/11/05 02:28:02;;;;;;;67.40;34.88;;;;;;;;;;6190934;23;20429;-79
2022/11/05 02:30:34;;;;;;;70.95;35.13;;;;;;;;;;6163218;23;20077;-78
2022/11/05 02:33:21;;;;;;;65.55;34.97;;;;;;;;;;6213576;23;20001;-78
2022/11/05 02:36:07;;;;;;;63.65;34.35;;;;;;;;;;6213336;23;20083;-78
2022/11/05 02:38:39;;;;;;;67.32;34.67;;;;;;;;;;6187023;23;20023;-78
2022/11/05 02:41:08;;;;;;;70.60;37.55;;;;;;;;;;6163641;23;20933;-78
2022/11/05 02:43:39;;;;;;;73.78;37.78;;;;;;;;;;6187527;23;20005;-78
2022/11/05 02:46:14;;;;;;;72.00;36.38;;;;;;;;;;6187966;23;20005;-78
2022/11/05 02:48:56;;;;;;;70.03;37.25;;;;;;;;;;6161993;23;20012;-78
2022/11/05 02:51:50;;;;;;;73.97;38.80;;;;;;;;;;6188705;23;20000;-78
2022/11/05 02:54:33;;;;;;;68.43;35.22;;;;;;;;;;6187083;23;20116;-78
2022/11/05 02:56:58;;;;;;;81.88;36.13;;;;;;;;;;6187753;23;20004;-78
2022/11/05 02:59:24;;;;;;;74.63;34.90;;;;;;;;;;6162708;23;20000;-78
2022/11/05 03:01:49;;;;;;;68.47;34.00;;;;;;;;;;6213117;23;20001;-78
2022/11/05 03:04:18;;;;;;;67.13;33.88;;;;;;;;;;6213576;23;20328;-78
2022/11/05 03:07:03;;;;;;;68.18;34.22;;;;;;;;;;6188037;23;20043;-79
2022/11/05 03:09:34;;;;;;;70.82;34.53;;;;;;;;;;6196670;23;20016;-78
2022/11/05 03:12:20;;;;;;;66.65;35.08;;;;;;;;;;6213962;23;20326;-78
2022/11/05 03:15:06;;;;;;;66.40;34.83;;;;;;;;;;6212861;23;20008;-78
2022/11/05 03:18:01;;;;;;;69.60;35.35;;;;;;;;;;6212334;23;20013;-79
2022/11/05 03:20:45;;;;;;;66.28;35.15;;;;;;;;;;6213934;23;20031;-78
2022/11/05 03:23:26;;;;;;;68.00;35.13;;;;;;;;;;6215722;23;20005;-78
2022/11/05 03:26:01;;;;;;;67.13;34.05;;;;;;;;;;6214082;23;20001;-79
2022/11/05 03:28:27;;;;;;;75.80;35.90;;;;;;;;;;6164742;23;20067;-78
2022/11/05 03:30:54;;;;;;;74.38;37.15;;;;;;;;;;6188912;23;20000;-79
2022/11/05 03:33:24;;;;;;;73.70;36.00;;;;;;;;;;6215264;23;20051;-78
2022/11/05 03:35:53;;;;;;;70.18;36.20;;;;;;;;;;6194302;23;20000;-78
2022/11/05 03:38:24;;;;;;;74.95;35.45;;;;;;;;;;6191329;23;20028;-78
2022/11/05 03:40:51;;;;;;;75.38;35.70;;;;;;;;;;6190078;23;20083;-78
2022/11/05 03:43:17;;;;;;;64.05;34.58;;;;;;;;;;6189082;23;20001;-78
2022/11/05 03:45:54;;;;;;;70.05;34.75;;;;;;;;;;6213780;23;20046;-78
2022/11/05 03:48:19;;;;;;;67.68;34.17;;;;;;;;;;6190705;23;20004;-78
2022/11/05 03:51:40;;;;;;;67.82;35.00;;;;;;;;;;6214227;23;20026;-79
2022/11/05 03:54:05;;;;;;;;;;;;;;;;;;6210819;23;20005;-79
2022/11/05 03:57:00;;;;;;;66.03;33.88;;;;;;;;;;6213497;23;19908;-77
2022/11/05 03:59:26;;;;;;;62.35;34.00;;;;;;;;;;6169154;23;20131;-79
2022/11/05 04:01:52;;;;;;;74.35;34.70;;;;;;;;;;6189409;23;20048;-78
2022/11/05 04:04:17;;;;;;;72.20;36.22;;;;;;;;;;6215435;23;20004;-78
2022/11/05 04:14:55;;;;;;;79.10;35.67;;;;;;;;;;6191308;23;20007;-78
2022/11/05 04:17:20;;;;;;;70.88;35.80;;;;;;;;;;6188679;23;20095;-78
2022/11/05 04:25:15;;;;;;;75.22;35.40;;;;;;;;;;6215213;23;20100;-79
2022/11/05 04:27:41;;;;;;;70.32;36.83;;;;;;;;;;6188462;23;20000;-78
2022/11/05 04:30:19;;;;;;;69.05;33.78;;;;;;;;;;6214847;23;20499;-77
2022/11/05 04:33:14;;;;;;;60.60;33.25;;;;;;;;;;6214935;23;20008;-78
2022/11/05 04:35:47;;;;;;;64.68;31.95;;;;;;;;;;6214955;23;20008;-78
2022/11/05 04:38:16;;;;;;;71.57;32.30;;;;;;;;;;6188885;23;20400;-78
2022/11/05 04:40:42;;;;;;;63.00;31.15;;;;;;;;;;6188068;23;20032;-78
2022/11/05 04:43:15;;;;;;;60.15;29.35;;;;;;;;;;6214590;23;20054;-79
2022/11/05 04:45:41;;;;;;;59.97;29.13;;;;;;;;;;6189528;23;20351;-78
2022/11/05 04:48:07;;;;;;;54.13;28.02;;;;;;;;;;6188901;23;20012;-77
2022/11/05 04:50:32;;;;;;;54.60;27.88;;;;;;;;;;6188424;23;20507;-78
2022/11/05 04:52:58;;;;;;;58.13;27.40;;;;;;;;;;6163540;23;20008;-78
2022/11/05 04:55:24;;;;;;;52.17;27.90;;;;;;;;;;6214790;23;20488;-77
2022/11/05 04:57:50;;;;;;;48.67;26.95;;;;;;;;;;6187894;23;20624;-79
2022/11/05 05:00:17;;;;;;;51.20;26.75;;;;;;;;;;6188221;23;20028;-77
2022/11/05 05:02:42;;;;;;;54.85;26.67;;;;;;;;;;6190355;23;20036;-78
2022/11/05 05:05:08;;;;;;;53.22;25.95;;;;;;;;;;6214807;23;20004;-78
2022/11/05 05:07:33;;;;;;;51.80;26.77;;;;;;;;;;6214632;23;20352;-78
2022/11/05 05:10:01;;;;;;;54.28;26.98;;;;;;;;;;6214118;23;20032;-78
2022/11/05 05:12:27;;;;;;;60.75;26.95;;;;;;;;;;6214206;23;20005;-78
2022/11/05 05:14:52;;;;;;;51.95;26.33;;;;;;;;;;6187850;23;20012;-78
2022/11/05 05:17:18;;;;;;;51.53;25.95;;;;;;;;;;6213261;23;20008;-79
2022/11/05 05:22:27;;;;;;;55.55;26.27;;;;;;;;;;6215812;23;20016;-79
2022/11/05 05:24:55;;;;;;;51.03;25.48;;;;;;;;;;6214873;23;20004;-79
2022/11/05 05:27:21;;;;;;;45.60;25.13;;;;;;;;;;6214292;23;20012;-78
2022/11/05 05:29:47;;;;;;;48.35;26.25;;;;;;;;;;6213984;23;20009;-78
2022/11/05 05:32:13;;;;;;;59.92;26.02;;;;;;;;;;6187894;23;20450;-78
2022/11/05 05:34:38;;;;;;;51.38;25.35;;;;;;;;;;6214755;23;20018;-78
2022/11/05 05:37:03;;;;;;;47.05;27.02;;;;;;;;;;6214021;23;20001;-78
2022/11/05 05:39:29;;;;;;;54.67;27.55;;;;;;;;;;6214376;23;20015;-78
2022/11/05 05:41:54;;;;;;;53.67;27.48;;;;;;;;;;6213758;23;20011;-78
2022/11/05 05:44:20;;;;;;;54.78;26.08;;;;;;;;;;6213981;23;20009;-78
2022/11/05 05:46:46;;;;;;;55.65;26.95;;;;;;;;;;6187700;23;20004;-79
2022/11/05 05:49:11;;;;;;;54.83;27.33;;;;;;;;;;6214436;23;20028;-78
2022/11/05 05:51:37;;;;;;;54.53;27.48;;;;;;;;;;6214054;23;20001;-79
2022/11/05 05:54:03;;;;;;;50.38;27.52;;;;;;;;;;6187908;23;20364;-78
2022/11/05 05:56:28;;;;;;;53.17;26.90;;;;;;;;;;6213511;23;20023;-79
2022/11/05 05:58:54;;;;;;;56.90;27.70;;;;;;;;;;6213684;23;20004;-78
2022/11/05 06:01:20;;;;;;;53.40;27.95;;;;;;;;;;6213654;23;20016;-78
2022/11/05 06:03:46;;;;;;;93.80;37.85;;;;;;;;;;6189478;23;20008;-78
2022/11/05 06:06:12;;;;;;;93.28;42.05;;;;;;;;;;6213892;23;20005;-78
2022/11/05 06:08:37;;;;;;;80.72;37.53;;;;;;;;;;6187336;23;20700;-78
2022/11/05 06:11:03;;;;;;;82.22;37.10;;;;;;;;;;6213354;23;20012;-77
2022/11/05 06:13:28;;;;;;;63.90;32.78;;;;;;;;;;6187555;23;20011;-78
2022/11/05 06:16:01;;;;;;;68.00;31.90;;;;;;;;;;6213387;23;20008;-78
2022/11/05 06:18:30;;;;;;;60.30;32.28;;;;;;;;;;6212697;23;20022;-78
2022/11/05 06:21:00;;;;;;;60.58;32.95;;;;;;;;;;6213749;23;20092;-78
2022/11/05 06:23:26;;;;;;;;;;;;;;;;;;6214223;23;20004;-78
2022/11/05 06:25:51;;;;;;;60.28;29.90;;;;;;;;;;6213086;23;19915;-78
2022/11/05 06:28:16;;;;;;;66.45;31.88;;;;;;;;;;6214027;23;20004;-77
2022/11/05 06:30:42;;;;;;;62.65;31.52;;;;;;;;;;6213546;23;20355;-77
2022/11/05 06:33:07;;;;;;;61.72;32.00;;;;;;;;;;6214099;23;20341;-77
2022/11/05 06:35:33;;;;;;;60.38;32.75;;;;;;;;;;6162176;23;20012;-77
2022/11/05 06:38:00;;;;;;;65.53;33.38;;;;;;;;;;6213616;23;20015;-78
2022/11/05 06:40:25;;;;;;;64.32;32.60;;;;;;;;;;6162425;23;20005;-77
2022/11/05 06:42:52;;;;;;;62.78;35.28;;;;;;;;;;6213993;23;20005;-78
2022/11/05 06:45:17;;;;;;;70.25;33.28;;;;;;;;;;6187903;23;20000;-78
2022/11/05 06:47:43;;;;;;;69.90;32.72;;;;;;;;;;6215732;23;20078;-78
2022/11/05 06:50:08;;;;;;;61.80;33.80;;;;;;;;;;6215759;23;20001;-77
2022/11/05 06:52:34;;;;;;;67.60;33.38;;;;;;;;;;6213462;23;20047;-78
2022/11/05 06:54:59;;;;;;;73.75;35.33;;;;;;;;;;6212236;23;20012;-78
2022/11/05 06:57:25;;;;;;;65.68;36.38;;;;;;;;;;6211932;23;20008;-78
2022/11/05 06:59:50;;;;;;;71.82;36.22;;;;;;;;;;6210731;23;20035;-79
2022/11/05 07:02:17;;;;;;;73.45;35.00;;;;;;;;;;6159357;23;20020;-77
2022/11/05 07:04:42;;;;;;;67.78;33.83;;;;;;;;;;6158694;23;20428;-77
2022/11/05 07:07:08;;;;;;;65.88;33.95;;;;;;;;;;6210989;23;20039;-77
2022/11/05 07:09:37;;;;;;;60.60;33.05;;;;;;;;;;6183854;23;20208;-77
2022/11/05 07:12:03;;;;;;;79.22;33.72;;;;;;;;;;6212016;23;20005;-77
2022/11/05 07:14:28;;;;;;;68.28;35.88;;;;;;;;;;6184389;23;20072;-77
2022/11/05 07:16:55;;;;;;;71.10;36.20;;;;;;;;;;6210836;23;20008;-77
2022/11/05 07:19:21;;;;;;;68.38;36.50;;;;;;;;;;6184751;23;20071;-77
2022/11/05 07:21:47;;;;;;;70.57;36.13;;;;;;;;;;6182707;23;20427;-77
2022/11/05 07:24:14;;;;;;;63.63;34.00;;;;;;;;;;6183054;23;20000;-77
2022/11/05 07:26:40;;;;;;;64.30;33.33;;;;;;;;;;6182975;23;20008;-77
2022/11/05 07:29:05;;;;;;;63.05;31.63;;;;;;;;;;6184457;23;20123;-77
2022/11/05 07:31:31;;;;;;;60.00;32.55;;;;;;;;;;6211041;23;20005;-77
2022/11/05 07:33:58;;;;;;;60.92;31.67;;;;;;;;;;6211147;23;20008;-77
2022/11/05 07:36:23;;;;;;;58.65;30.75;;;;;;;;;;6211614;23;20005;-77
2022/11/05 07:38:49;;;;;;;57.78;31.77;;;;;;;;;;6213447;23;20055;-77
2022/11/05 07:41:14;;;;;;;66.50;32.45;;;;;;;;;;6213132;23;20040;-78
2022/11/05 07:43:40;;;;;;;63.20;30.42;;;;;;;;;;6212625;23;20011;-79
2022/11/05 07:46:05;;;;;;;64.10;31.50;;;;;;;;;;6186296;23;20011;-77
2022/11/05 07:48:31;;;;;;;116.38;43.28;;;;;;;;;;6216048;23;20004;-76
2022/11/05 07:50:56;;;;;;;88.15;37.03;;;;;;;;;;6213026;23;20424;-77
2022/11/05 07:53:22;;;;;;;63.45;30.65;;;;;;;;;;6212412;23;20344;-77
2022/11/05 07:55:47;;;;;;;71.78;33.33;;;;;;;;;;6185834;23;20032;-77
2022/11/05 07:58:13;;;;;;;58.58;29.98;;;;;;;;;;6161247;23;20013;-78
2022/11/05 08:00:38;;;;;;;70.22;33.28;;;;;;;;;;6212958;23;20001;-77
2022/11/05 08:03:14;;;;;;;91.72;39.13;;;;;;;;;;6212190;23;20006;-77
2022/11/05 08:05:43;;;;;;;70.45;31.75;;;;;;;;;;6212883;23;20108;-78
2022/11/05 08:08:09;;;;;;;56.25;30.30;;;;;;;;;;6187266;23;20011;-79
2022/11/05 08:10:35;;;;;;;60.65;30.33;;;;;;;;;;6185944;23;20012;-78
2022/11/05 08:13:01;;;;;;;65.85;31.88;;;;;;;;;;6187122;23;20005;-78
2022/11/05 08:15:26;;;;;;;63.58;32.13;;;;;;;;;;6211276;23;20451;-77
2022/11/05 08:18:03;;;;;;;57.17;28.98;;;;;;;;;;6211096;23;20008;-79
2022/11/05 08:20:28;;;;;;;62.10;29.95;;;;;;;;;;6212602;23;20091;-78
2022/11/05 08:22:54;;;;;;;51.83;29.70;;;;;;;;;;6210053;23;20008;-78
2022/11/05 08:25:19;;;;;;;53.58;29.83;;;;;;;;;;6214349;23;20005;-77
2022/11/05 08:27:45;;;;;;;58.60;29.85;;;;;;;;;;6212389;23;20001;-79
2022/11/05 08:30:11;;;;;;;59.58;31.40;;;;;;;;;;6211787;23;20028;-78
2022/11/05 08:32:36;;;;;;;69.15;31.98;;;;;;;;;;6211338;23;20097;-78
2022/11/05 08:35:02;;;;;;;59.13;31.63;;;;;;;;;;6213605;23;20008;-78
2022/11/05 08:37:28;;;;;;;59.38;31.77;;;;;;;;;;6211879;23;20424;-77
2022/11/05 08:39:53;;;;;;;57.83;32.10;;;;;;;;;;6163254;23;20004;-78
2022/11/05 08:42:18;;;;;;;70.80;32.65;;;;;;;;;;6213521;23;20067;-77
2022/11/05 08:44:44;;;;;;;67.65;33.20;;;;;;;;;;6212516;23;20012;-78
2022/11/05 08:47:09;;;;;;;65.20;32.90;;;;;;;;;;6210505;23;20079;-78
2022/11/05 08:49:35;;;;;;;64.80;32.53;;;;;;;;;;6211878;23;20432;-79
2022/11/05 08:52:00;;;;;;;60.85;31.63;;;;;;;;;;6211066;23;20004;-78
2022/11/05 08:54:27;;;;;;;60.13;30.85;;;;;;;;;;6209369;23;20009;-78
2022/11/05 08:56:54;;;;;;;63.78;31.77;;;;;;;;;;6209578;23;20015;-77
2022/11/05 08:59:20;;;;;;;63.20;31.83;;;;;;;;;;6209880;23;20015;-79
2022/11/05 09:01:45;;;;;;;60.88;32.38;;;;;;;;;;6212305;23;20032;-78
2022/11/05 09:04:11;;;;;;;60.15;32.08;;;;;;;;;;6184110;23;20005;-77
2022/11/05 09:06:36;;;;;;;67.35;31.20;;;;;;;;;;6211251;23;20012;-78
2022/11/05 09:09:01;;;;;;;65.75;33.15;;;;;;;;;;6212412;23;20001;-78
2022/11/05 09:11:27;;;;;;;63.10;32.15;;;;;;;;;;6186388;23;20257;-78
2022/11/05 09:13:52;;;;;;;57.47;32.45;;;;;;;;;;6161540;23;20005;-78
2022/11/05 09:16:19;;;;;;;69.60;33.90;;;;;;;;;;6186768;23;20011;-78
2022/11/05 09:18:44;;;;;;;62.83;33.10;;;;;;;;;;6187116;23;20024;-78
2022/11/05 09:21:10;;;;;;;67.88;33.78;;;;;;;;;;6214741;23;20447;-77
2022/11/05 09:23:35;;;;;;;67.35;32.55;;;;;;;;;;6162513;23;20009;-78
2022/11/05 09:26:01;;;;;;;63.72;32.10;;;;;;;;;;6212574;23;20001;-78
2022/11/05 09:28:27;;;;;;;80.60;38.55;;;;;;;;;;6187717;23;20020;-78
2022/11/05 09:30:52;;;;;;;72.32;34.10;;;;;;;;;;6187549;23;20506;-78
2022/11/05 09:33:37;;;;;;;68.45;34.85;;;;;;;;;;6213991;23;20008;-78
2022/11/05 09:36:03;;;;;;;63.47;33.92;;;;;;;;;;6213903;23;20000;-78
2022/11/05 09:38:31;;;;;;;69.65;32.97;;;;;;;;;;6187455;23;20516;-78
2022/11/05 09:41:34;;;;;;;68.97;33.50;;;;;;;;;;6187484;23;20351;-77
2022/11/05 09:44:02;;;;;;;69.70;34.10;;;;;;;;;;6092597;23;20010;-78
2022/11/05 09:46:37;;;;;;;65.05;32.83;;;;;;;;;;6140724;23;20015;-78
2022/11/05 09:49:05;;;;;;;63.35;32.00;;;;;;;;;;6164648;23;20028;-78
2022/11/05 09:51:31;;;;;;;61.72;33.83;;;;;;;;;;6189078;23;20008;-79
2022/11/05 09:53:58;;;;;;;66.07;32.95;;;;;;;;;;6186311;23;20387;-77
2022/11/05 09:56:29;;;;;;;67.18;33.38;;;;;;;;;;6212743;23;20004;-77
2022/11/05 09:59:35;;;;;;;65.30;33.42;;;;;;;;;;6187213;23;20008;-78
2022/11/05 10:02:10;;;;;;;65.88;33.90;;;;;;;;;;6190744;23;20005;-80
2022/11/05 10:04:35;;;;;;;65.95;34.10;;;;;;;;;;6161770;23;20443;-78
2022/11/05 10:07:02;;;;;;;71.55;34.35;;;;;;;;;;6213138;23;20119;-78
2022/11/05 10:09:36;;;;;;;69.13;32.72;;;;;;;;;;6136966;23;20019;-78
2022/11/05 10:12:35;;;;;;;69.28;33.00;;;;;;;;;;6189494;23;20008;-78
2022/11/05 10:15:10;;;;;;;62.95;33.50;;;;;;;;;;6159308;23;20004;-78
2022/11/05 10:17:36;;;;;;;73.88;33.38;;;;;;;;;;6183467;23;20048;-77
2022/11/05 10:20:05;;;;;;;69.97;32.92;;;;;;;;;;6135138;23;20026;-76
2022/11/05 10:22:30;;;;;;;67.78;33.05;;;;;;;;;;6183812;23;19996;-77
2022/11/05 10:24:56;;;;;;;68.53;34.67;;;;;;;;;;6158881;23;20008;-79
2022/11/05 10:27:34;;;;;;;66.50;34.45;;;;;;;;;;6134141;23;20008;-77
2022/11/05 10:30:00;;;;;;;65.35;33.67;;;;;;;;;;6161227;23;20005;-79
2022/11/05 10:32:32;;;;;;;67.05;33.70;;;;;;;;;;6186529;23;20454;-78
2022/11/05 10:34:59;;;;;;;62.78;32.60;;;;;;;;;;6185706;23;20088;-78
2022/11/05 10:37:24;;;;;;;74.35;34.47;;;;;;;;;;6160451;23;20009;-78
2022/11/05 10:39:50;;;;;;;72.95;34.85;;;;;;;;;;6185366;23;20039;-78
2022/11/05 10:42:30;;;;;;;68.47;33.60;;;;;;;;;;6160481;23;20001;-78
2022/11/05 10:45:06;;;;;;;66.05;32.58;;;;;;;;;;6185261;23;20335;-78
2022/11/05 10:47:42;;;;;;;65.35;33.35;;;;;;;;;;6186254;23;20476;-79
2022/11/05 10:50:12;;;;;;;66.95;33.92;;;;;;;;;;6188422;23;20000;-78
2022/11/05 10:52:50;;;;;;;61.95;33.05;;;;;;;;;;6162841;23;20006;-78
2022/11/05 10:55:22;;;;;;;64.50;32.80;;;;;;;;;;6213227;23;20001;-78
2022/11/05 10:57:50;;;;;;;68.30;33.95;;;;;;;;;;6162915;23;20008;-78
2022/11/05 11:00:15;;;;;;;61.75;34.03;;;;;;;;;;6213325;23;19997;-78
2022/11/05 11:02:42;;;;;;;62.83;33.70;;;;;;;;;;6213431;23;20004;-78
2022/11/05 11:05:08;;;;;;;68.72;33.65;;;;;;;;;;6186653;23;20032;-78
2022/11/05 11:07:33;;;;;;;68.18;34.72;;;;;;;;;;6162107;23;20024;-78
2022/11/05 11:09:58;;;;;;;67.57;35.45;;;;;;;;;;6213074;23;20018;-78
2022/11/05 11:12:48;;;;;;;65.80;34.38;;;;;;;;;;6213985;23;20009;-79
2022/11/05 11:15:19;;;;;;;71.05;34.47;;;;;;;;;;6212995;23;20027;-78
2022/11/05 11:17:45;;;;;;;71.65;33.90;;;;;;;;;;6187137;23;20470;-78
2022/11/05 11:20:21;;;;;;;65.45;34.85;;;;;;;;;;6187047;23;20004;-79
2022/11/05 11:23:14;;;;;;;66.63;34.08;;;;;;;;;;6213365;23;20012;-79
2022/11/05 11:25:50;;;;;;;59.88;33.50;;;;;;;;;;6160848;23;20142;-78
2022/11/05 11:28:24;;;;;;;71.05;34.60;;;;;;;;;;6161478;23;20012;-78
2022/11/05 11:31:01;;;;;;;68.85;34.78;;;;;;;;;;6186263;23;20039;-78
2022/11/05 11:33:27;;;;;;;76.65;35.58;;;;;;;;;;6161916;23;20009;-78
2022/11/05 11:35:52;;;;;;;66.30;34.90;;;;;;;;;;6161548;23;20055;-78
2022/11/05 11:38:17;;;;;;;66.97;34.63;;;;;;;;;;6212831;23;20352;-77
2022/11/05 11:40:43;;;;;;;66.88;34.60;;;;;;;;;;6186881;23;20379;-79
2022/11/05 11:43:22;;;;;;;63.40;34.55;;;;;;;;;;6162946;23;20074;-78
2022/11/05 11:45:49;;;;;;;71.47;34.38;;;;;;;;;;6163107;23;20283;-78
2022/11/05 11:48:17;;;;;;;70.75;34.15;;;;;;;;;;6187091;23;20074;-79
2022/11/05 11:50:43;;;;;;;73.38;34.25;;;;;;;;;;6187475;23;20010;-79
2022/11/05 11:53:47;;;;;;;72.22;34.42;;;;;;;;;;6188634;23;20011;-79
2022/11/05 11:56:17;;;;;;;65.05;33.53;;;;;;;;;;6208539;23;20004;-77
2022/11/05 11:58:49;;;;;;;70.28;35.38;;;;;;;;;;6214911;23;20008;-78
2022/11/05 12:01:26;;;;;;;70.30;35.88;;;;;;;;;;6215383;23;20005;-78
2022/11/05 12:04:25;;;;;;;74.57;35.47;;;;;;;;;;6215005;23;19996;-78
2022/11/05 12:07:16;;;;;;;68.75;33.53;;;;;;;;;;6214534;23;20043;-79
2022/11/05 12:09:53;;;;;;;65.00;33.55;;;;;;;;;;6188234;23;20398;-78
2022/11/05 12:12:43;;;;;;;73.05;35.90;;;;;;;;;;6164109;23;20005;-78
2022/11/05 12:15:43;;;;;;;68.07;35.22;;;;;;;;;;6192498;23;20007;-78
2022/11/05 12:18:14;;;;;;;70.30;34.53;;;;;;;;;;6188346;23;20008;-78
2022/11/05 12:20:39;;;;;;;70.20;33.60;;;;;;;;;;6189465;23;20001;-78
2022/11/05 12:23:11;;;;;;;79.57;34.92;;;;;;;;;;6215541;23;20441;-78
2022/11/05 12:25:56;;;;;;;65.45;35.55;;;;;;;;;;6215470;23;20030;-78
2022/11/05 12:28:34;;;;;;;79.15;34.35;;;;;;;;;;6214743;23;20067;-78
2022/11/05 12:31:21;;;;;;;67.03;33.90;;;;;;;;;;6188064;23;20016;-79
2022/11/05 12:34:25;;;;;;;72.72;34.50;;;;;;;;;;6214693;23;20009;-78
2022/11/05 12:37:09;;;;;;;73.97;34.55;;;;;;;;;;6193749;23;20424;-78
2022/11/05 12:40:01;;;;;;;77.18;35.15;;;;;;;;;;6215037;23;20009;-77
2022/11/05 12:42:46;;;;;;;67.80;35.33;;;;;;;;;;6194546;23;20009;-78
2022/11/05 12:45:18;;;;;;;79.10;34.15;;;;;;;;;;6188822;23;20000;-79
2022/11/05 12:47:59;;;;;;;74.35;35.42;;;;;;;;;;6187409;23;20012;-78
2022/11/05 12:50:33;;;;;;;74.97;34.30;;;;;;;;;;6190335;23;19997;-78
2022/11/05 12:53:03;;;;;;;72.97;34.35;;;;;;;;;;6163918;23;20000;-78
2022/11/05 12:55:39;;;;;;;69.40;34.30;;;;;;;;;;6188030;23;20333;-78
2022/11/05 12:58:11;;;;;;;76.88;36.15;;;;;;;;;;6187872;23;20056;-78
2022/11/05 13:00:36;;;;;;;73.47;37.25;;;;;;;;;;6164443;23;20080;-77
2022/11/05 13:03:26;;;;;;;75.38;35.33;;;;;;;;;;6215203;23;19996;-78
2022/11/05 13:05:55;;;;;;;67.82;35.55;;;;;;;;;;6188182;23;20009;-78
2022/11/05 13:08:30;;;;;;;72.70;34.42;;;;;;;;;;6163884;23;20007;-78
2022/11/05 13:11:17;;;;;;;72.20;37.05;;;;;;;;;;6212507;23;20348;-77
2022/11/05 13:13:47;;;;;;;70.05;35.50;;;;;;;;;;6214105;23;20086;-77
2022/11/05 13:16:38;;;;;;;67.78;36.33;;;;;;;;;;6189410;23;20031;-78
2022/11/05 13:19:06;;;;;;;74.20;35.05;;;;;;;;;;6230685;23;20001;-77
2022/11/05 13:21:31;;;;;;;73.63;35.92;;;;;;;;;;6215430;23;20459;-77
2022/11/05 13:24:16;;;;;;;78.72;35.72;;;;;;;;;;6189091;23;20009;-79
2022/11/05 13:27:17;;;;;;;67.05;33.88;;;;;;;;;;6212281;23;20432;-78
2022/11/05 13:29:47;;;;;;;67.25;34.08;;;;;;;;;;6203950;23;20471;-78
2022/11/05 13:32:16;;;;;;;64.68;35.17;;;;;;;;;;6187036;23;20077;-77
2022/11/05 13:34:41;;;;;;;72.32;36.35;;;;;;;;;;6214457;23;20005;-78
2022/11/05 13:39:58;;;;;;;83.35;36.15;;;;;;;;;;6214427;23;20074;-78
2022/11/05 13:42:42;;;;;;;70.57;34.92;;;;;;;;;;6213101;23;20004;-78
2022/11/05 13:45:32;;;;;;;75.47;34.53;;;;;;;;;;6213384;23;20001;-78
2022/11/05 13:48:07;;;;;;;69.33;33.17;;;;;;;;;;6213966;23;20095;-78
2022/11/05 13:50:45;;;;;;;67.45;34.13;;;;;;;;;;6212835;23;20293;-78
2022/11/05 13:53:26;;;;;;;70.90;36.08;;;;;;;;;;6187860;23;20001;-78
2022/11/05 13:55:51;;;;;;;80.75;35.55;;;;;;;;;;6213491;23;20000;-79
2022/11/05 13:58:31;;;;;;;72.93;36.58;;;;;;;;;;6215461;23;20321;-78
2022/11/05 14:01:15;;;;;;;;;;;;;;;;;;6214593;23;20004;-77
2022/11/05 14:04:12;;;;;;;73.30;34.70;;;;;;;;;;6213888;23;19904;-78
2022/11/05 14:06:37;;;;;;;70.15;33.97;;;;;;;;;;6212270;23;20004;-78
2022/11/05 14:09:09;;;;;;;68.85;34.47;;;;;;;;;;6186797;23;20083;-78
2022/11/05 14:11:40;;;;;;;70.07;34.22;;;;;;;;;;6187776;23;20074;-78
2022/11/05 14:14:28;;;;;;;74.85;35.63;;;;;;;;;;6212897;23;20058;-78
2022/11/05 14:17:12;;;;;;;76.38;34.92;;;;;;;;;;6163301;23;20008;-78
2022/11/05 14:20:03;;;;;;;71.57;34.50;;;;;;;;;;6212671;23;20054;-78
2022/11/05 14:22:31;;;;;;;72.43;35.03;;;;;;;;;;6213884;23;20001;-78
2022/11/05 14:24:57;;;;;;;69.70;35.35;;;;;;;;;;6212334;23;20004;-79
2022/11/05 14:27:52;;;;;;;75.63;35.05;;;;;;;;;;6211992;23;20067;-78
2022/11/05 14:30:46;;;;;;;71.20;34.25;;;;;;;;;;6185195;23;20004;-78
2022/11/05 14:33:23;;;;;;;71.30;35.58;;;;;;;;;;6212503;23;20001;-78
2022/11/05 14:35:49;;;;;;;68.78;35.78;;;;;;;;;;6212570;23;20034;-77
2022/11/05 14:38:20;;;;;;;78.45;35.00;;;;;;;;;;6212102;23;20044;-79
2022/11/05 14:40:46;;;;;;;74.88;35.92;;;;;;;;;;6163023;23;20009;-78
2022/11/05 14:43:20;;;;;;;73.55;35.95;;;;;;;;;;6187385;23;20011;-77
2022/11/05 14:45:59;;;;;;;70.53;35.53;;;;;;;;;;6187384;23;20058;-77
2022/11/05 14:48:39;;;;;;;66.10;35.63;;;;;;;;;;6212039;23;19996;-77
2022/11/05 14:51:30;;;;;;;74.43;36.70;;;;;;;;;;6213738;23;20011;-78
2022/11/05 14:54:02;;;;;;;83.72;36.35;;;;;;;;;;6211807;23;20730;-77
2022/11/05 14:56:27;;;;;;;75.25;35.53;;;;;;;;;;6212080;23;20011;-78
2022/11/05 14:59:26;;;;;;;80.65;37.75;;;;;;;;;;6161909;23;20004;-78
2022/11/05 15:02:10;;;;;;;72.40;35.58;;;;;;;;;;6213762;23;19997;-78
2022/11/05 15:04:36;;;;;;;72.60;36.20;;;;;;;;;;6212206;23;20011;-78
2022/11/05 15:07:01;;;;;;;78.63;34.97;;;;;;;;;;6161662;23;20091;-78
2022/11/05 15:09:49;;;;;;;73.78;36.10;;;;;;;;;;6217052;23;20082;-77
2022/11/05 15:12:20;;;;;;;72.35;37.40;;;;;;;;;;6217902;23;20004;-78
2022/11/05 15:14:53;;;;;;;78.15;38.25;;;;;;;;;;6243857;23;20001;-78
2022/11/05 15:17:30;;;;;;;78.68;37.03;;;;;;;;;;6216398;23;20008;-78
2022/11/05 15:20:19;;;;;;;75.65;36.45;;;;;;;;;;6191725;23;20005;-78
2022/11/05 15:22:57;;;;;;;88.93;37.35;;;;;;;;;;6201519;23;20040;-78
2022/11/05 15:25:45;;;;;;;80.22;37.65;;;;;;;;;;6192050;23;20012;-77
2022/11/05 15:28:40;;;;;;;72.95;37.88;;;;;;;;;;6216950;23;20000;-77